sensor_id;sensor_type;location;lat;lon;timestamp;P1;durP1;ratioP1;P2;durP2;ratioP2
76165;SDS011;65085;46.718;20.136;2023-02-11T00:00:35;83.50;;;25.43;;
76165;SDS011;65085;46.718;20.136;2023-02-11T00:03:40;70.03;;;23.83;;
76165;SDS011;65085;46.718;20.136;2023-02-11T00:06:43;78.95;;;26.90;;
76165;SDS011;65085;46.718;20.136;2023-02-11T00:09:46;79.43;;;27.63;;
76165;SDS011;65085;46.718;20.136;2023-02-11T00:12:48;101.20;;;32.97;;
76165;SDS011;65085;46.718;20.136;2023-02-11T00:15:53;95.97;;;31.77;;
76165;SDS011;65085;46.718;20.136;2023-02-11T00:18:57;81.68;;;26.65;;
76165;SDS011;65085;46.718;20.136;2023-02-11T00:22:01;77.28;;;24.67;;
76165;SDS011;65085;46.718;20.136;2023-02-11T00:25:04;66.63;;;21.13;;
76165;SDS011;65085;46.718;20.136;2023-02-11T00:28:07;61.47;;;20.05;;
76165;SDS011;65085;46.718;20.136;2023-02-11T00:31:12;53.20;;;18.43;;
76165;SDS011;65085;46.718;20.136;2023-02-11T00:34:16;58.63;;;19.40;;
76165;SDS011;65085;46.718;20.136;2023-02-11T00:37:19;56.40;;;18.45;;
76165;SDS011;65085;46.718;20.136;2023-02-11T00:40:22;57.80;;;19.05;;
76165;SDS011;65085;46.718;20.136;2023-02-11T00:43:25;47.75;;;18.35;;
76165;SDS011;65085;46.718;20.136;2023-02-11T00:46:29;51.50;;;17.97;;
76165;SDS011;65085;46.718;20.136;2023-02-11T00:49:32;49.08;;;17.20;;
76165;SDS011;65085;46.718;20.136;2023-02-11T00:52:35;49.35;;;17.35;;
76165;SDS011;65085;46.718;20.136;2023-02-11T00:55:38;46.58;;;16.75;;
76165;SDS011;65085;46.718;20.136;2023-02-11T00:58:40;51.78;;;17.55;;
76165;SDS011;65085;46.718;20.136;2023-02-11T01:01:46;47.77;;;15.07;;
76165;SDS011;65085;46.718;20.136;2023-02-11T01:04:49;48.92;;;16.75;;
76165;SDS011;65085;46.718;20.136;2023-02-11T01:07:51;46.85;;;16.50;;
76165;SDS011;65085;46.718;20.136;2023-02-11T01:10:55;40.83;;;15.40;;
76165;SDS011;65085;46.718;20.136;2023-02-11T01:13:59;44.13;;;15.05;;
76165;SDS011;65085;46.718;20.136;2023-02-11T01:17:04;44.07;;;15.43;;
76165;SDS011;65085;46.718;20.136;2023-02-11T01:20:10;43.35;;;15.68;;
76165;SDS011;65085;46.718;20.136;2023-02-11T01:23:15;43.22;;;15.13;;
76165;SDS011;65085;46.718;20.136;2023-02-11T01:26:18;44.83;;;14.35;;
76165;SDS011;65085;46.718;20.136;2023-02-11T01:29:21;54.78;;;16.67;;
76165;SDS011;65085;46.718;20.136;2023-02-11T01:32:25;46.43;;;15.00;;
76165;SDS011;65085;46.718;20.136;2023-02-11T01:35:28;45.17;;;15.88;;
76165;SDS011;65085;46.718;20.136;2023-02-11T01:38:31;55.47;;;17.48;;
76165;SDS011;65085;46.718;20.136;2023-02-11T01:41:53;43.85;;;15.93;;
76165;SDS011;65085;46.718;20.136;2023-02-11T01:44:56;41.03;;;15.07;;
76165;SDS011;65085;46.718;20.136;2023-02-11T01:48:01;48.07;;;16.00;;
76165;SDS011;65085;46.718;20.136;2023-02-11T01:51:04;48.88;;;16.85;;
76165;SDS011;65085;46.718;20.136;2023-02-11T01:54:11;41.08;;;16.05;;
76165;SDS011;65085;46.718;20.136;2023-02-11T01:57:35;50.70;;;16.75;;
76165;SDS011;65085;46.718;20.136;2023-02-11T02:00:41;47.47;;;17.38;;
76165;SDS011;65085;46.718;20.136;2023-02-11T02:03:46;42.97;;;17.07;;
76165;SDS011;65085;46.718;20.136;2023-02-11T02:06:55;47.67;;;17.45;;
76165;SDS011;65085;46.718;20.136;2023-02-11T02:10:05;44.58;;;14.05;;
76165;SDS011;65085;46.718;20.136;2023-02-11T02:13:12;41.03;;;14.18;;
76165;SDS011;65085;46.718;20.136;2023-02-11T02:16:17;38.30;;;14.65;;
76165;SDS011;65085;46.718;20.136;2023-02-11T02:19:36;40.60;;;14.87;;
76165;SDS011;65085;46.718;20.136;2023-02-11T02:23:15;38.08;;;13.40;;
76165;SDS011;65085;46.718;20.136;2023-02-11T02:26:35;42.10;;;14.73;;
76165;SDS011;65085;46.718;20.136;2023-02-11T02:33:41;39.38;;;14.32;;
76165;SDS011;65085;46.718;20.136;2023-02-11T02:36:54;40.30;;;14.83;;
76165;SDS011;65085;46.718;20.136;2023-02-11T02:40:04;39.85;;;15.48;;
76165;SDS011;65085;46.718;20.136;2023-02-11T02:43:10;41.00;;;15.35;;
76165;SDS011;65085;46.718;20.136;2023-02-11T02:46:16;40.65;;;15.15;;
76165;SDS011;65085;46.718;20.136;2023-02-11T02:49:22;46.00;;;16.30;;
76165;SDS011;65085;46.718;20.136;2023-02-11T02:52:28;43.87;;;15.87;;
76165;SDS011;65085;46.718;20.136;2023-02-11T02:55:40;49.85;;;16.25;;
76165;SDS011;65085;46.718;20.136;2023-02-11T03:02:31;53.42;;;16.85;;
76165;SDS011;65085;46.718;20.136;2023-02-11T03:05:42;49.08;;;16.23;;
76165;SDS011;65085;46.718;20.136;2023-02-11T03:08:54;46.60;;;16.03;;
76165;SDS011;65085;46.718;20.136;2023-02-11T03:12:00;48.42;;;16.70;;
76165;SDS011;65085;46.718;20.136;2023-02-11T03:15:05;49.53;;;16.88;;
76165;SDS011;65085;46.718;20.136;2023-02-11T03:18:27;46.60;;;16.67;;
76165;SDS011;65085;46.718;20.136;2023-02-11T03:21:33;49.90;;;16.17;;
76165;SDS011;65085;46.718;20.136;2023-02-11T03:24:39;50.80;;;15.80;;
76165;SDS011;65085;46.718;20.136;2023-02-11T03:27:46;52.30;;;17.08;;
76165;SDS011;65085;46.718;20.136;2023-02-11T03:31:00;50.95;;;16.73;;
76165;SDS011;65085;46.718;20.136;2023-02-11T03:34:12;47.00;;;15.27;;
76165;SDS011;65085;46.718;20.136;2023-02-11T03:37:20;45.75;;;16.33;;
76165;SDS011;65085;46.718;20.136;2023-02-11T03:40:30;49.53;;;16.07;;
76165;SDS011;65085;46.718;20.136;2023-02-11T03:43:37;52.63;;;16.95;;
76165;SDS011;65085;46.718;20.136;2023-02-11T03:46:43;58.15;;;17.95;;
76165;SDS011;65085;46.718;20.136;2023-02-11T03:49:50;50.25;;;16.40;;
76165;SDS011;65085;46.718;20.136;2023-02-11T03:52:57;48.53;;;15.73;;
76165;SDS011;65085;46.718;20.136;2023-02-11T03:56:04;45.13;;;15.50;;
76165;SDS011;65085;46.718;20.136;2023-02-11T03:59:10;48.70;;;15.82;;
76165;SDS011;65085;46.718;20.136;2023-02-11T04:02:12;41.00;;;14.43;;
76165;SDS011;65085;46.718;20.136;2023-02-11T04:05:15;34.78;;;12.75;;
76165;SDS011;65085;46.718;20.136;2023-02-11T04:08:19;38.65;;;13.93;;
76165;SDS011;65085;46.718;20.136;2023-02-11T04:11:22;43.70;;;13.87;;
76165;SDS011;65085;46.718;20.136;2023-02-11T04:14:25;38.30;;;14.80;;
76165;SDS011;65085;46.718;20.136;2023-02-11T04:17:28;49.20;;;16.85;;
76165;SDS011;65085;46.718;20.136;2023-02-11T04:20:30;51.97;;;17.67;;
76165;SDS011;65085;46.718;20.136;2023-02-11T04:23:34;50.55;;;17.40;;
76165;SDS011;65085;46.718;20.136;2023-02-11T04:26:37;45.40;;;17.07;;
76165;SDS011;65085;46.718;20.136;2023-02-11T04:29:40;54.28;;;17.60;;
76165;SDS011;65085;46.718;20.136;2023-02-11T04:32:42;40.28;;;14.85;;
76165;SDS011;65085;46.718;20.136;2023-02-11T04:35:45;37.80;;;14.73;;
76165;SDS011;65085;46.718;20.136;2023-02-11T04:38:49;46.00;;;14.35;;
76165;SDS011;65085;46.718;20.136;2023-02-11T04:41:52;35.33;;;12.87;;
76165;SDS011;65085;46.718;20.136;2023-02-11T04:44:55;38.75;;;14.60;;
76165;SDS011;65085;46.718;20.136;2023-02-11T04:47:57;40.45;;;13.75;;
76165;SDS011;65085;46.718;20.136;2023-02-11T04:51:00;41.63;;;14.32;;
76165;SDS011;65085;46.718;20.136;2023-02-11T04:54:05;42.15;;;15.05;;
76165;SDS011;65085;46.718;20.136;2023-02-11T04:57:08;48.00;;;16.00;;
76165;SDS011;65085;46.718;20.136;2023-02-11T05:00:11;83.82;;;24.48;;
76165;SDS011;65085;46.718;20.136;2023-02-11T05:03:15;86.05;;;24.63;;
76165;SDS011;65085;46.718;20.136;2023-02-11T05:06:18;74.68;;;21.20;;
76165;SDS011;65085;46.718;20.136;2023-02-11T05:09:23;58.58;;;18.30;;
76165;SDS011;65085;46.718;20.136;2023-02-11T05:12:25;59.27;;;18.77;;
76165;SDS011;65085;46.718;20.136;2023-02-11T05:15:28;57.70;;;18.35;;
76165;SDS011;65085;46.718;20.136;2023-02-11T05:18:31;72.75;;;24.77;;
76165;SDS011;65085;46.718;20.136;2023-02-11T05:21:33;66.30;;;21.70;;
76165;SDS011;65085;46.718;20.136;2023-02-11T05:24:38;56.90;;;22.20;;
76165;SDS011;65085;46.718;20.136;2023-02-11T05:27:40;140.83;;;51.83;;
76165;SDS011;65085;46.718;20.136;2023-02-11T05:30:43;80.47;;;29.63;;
76165;SDS011;65085;46.718;20.136;2023-02-11T05:33:46;65.82;;;24.58;;
76165;SDS011;65085;46.718;20.136;2023-02-11T05:36:48;56.90;;;19.55;;
76165;SDS011;65085;46.718;20.136;2023-02-11T05:39:53;47.55;;;17.80;;
76165;SDS011;65085;46.718;20.136;2023-02-11T05:42:55;43.90;;;16.03;;
76165;SDS011;65085;46.718;20.136;2023-02-11T05:45:58;48.00;;;14.75;;
76165;SDS011;65085;46.718;20.136;2023-02-11T05:49:01;48.45;;;16.58;;
76165;SDS011;65085;46.718;20.136;2023-02-11T05:52:04;43.83;;;15.57;;
76165;SDS011;65085;46.718;20.136;2023-02-11T05:55:08;36.85;;;12.30;;
76165;SDS011;65085;46.718;20.136;2023-02-11T05:58:11;33.83;;;13.93;;
76165;SDS011;65085;46.718;20.136;2023-02-11T06:01:15;48.60;;;15.48;;
76165;SDS011;65085;46.718;20.136;2023-02-11T06:04:17;37.22;;;15.52;;
76165;SDS011;65085;46.718;20.136;2023-02-11T06:07:20;47.65;;;16.27;;
76165;SDS011;65085;46.718;20.136;2023-02-11T06:10:24;47.28;;;16.27;;
76165;SDS011;65085;46.718;20.136;2023-02-11T06:13:27;43.13;;;16.43;;
76165;SDS011;65085;46.718;20.136;2023-02-11T06:16:30;60.78;;;20.02;;
76165;SDS011;65085;46.718;20.136;2023-02-11T06:19:33;74.43;;;26.75;;
76165;SDS011;65085;46.718;20.136;2023-02-11T06:22:36;92.22;;;33.47;;
76165;SDS011;65085;46.718;20.136;2023-02-11T06:25:41;97.50;;;33.13;;
76165;SDS011;65085;46.718;20.136;2023-02-11T06:28:44;72.37;;;26.63;;
76165;SDS011;65085;46.718;20.136;2023-02-11T06:31:47;63.35;;;22.90;;
76165;SDS011;65085;46.718;20.136;2023-02-11T06:34:50;55.53;;;21.15;;
76165;SDS011;65085;46.718;20.136;2023-02-11T06:37:53;65.63;;;23.75;;
76165;SDS011;65085;46.718;20.136;2023-02-11T06:40:57;63.47;;;22.88;;
76165;SDS011;65085;46.718;20.136;2023-02-11T06:43:59;69.30;;;22.50;;
76165;SDS011;65085;46.718;20.136;2023-02-11T06:47:02;109.93;;;32.08;;
76165;SDS011;65085;46.718;20.136;2023-02-11T06:50:06;108.63;;;30.58;;
76165;SDS011;65085;46.718;20.136;2023-02-11T06:53:10;82.43;;;25.80;;
76165;SDS011;65085;46.718;20.136;2023-02-11T06:56:14;76.53;;;25.10;;
76165;SDS011;65085;46.718;20.136;2023-02-11T06:59:18;66.37;;;22.13;;
76165;SDS011;65085;46.718;20.136;2023-02-11T07:02:21;65.78;;;20.73;;
76165;SDS011;65085;46.718;20.136;2023-02-11T07:05:24;54.75;;;19.02;;
76165;SDS011;65085;46.718;20.136;2023-02-11T07:08:27;51.28;;;17.67;;
76165;SDS011;65085;46.718;20.136;2023-02-11T07:11:32;52.47;;;18.92;;
76165;SDS011;65085;46.718;20.136;2023-02-11T07:14:35;45.63;;;16.07;;
76165;SDS011;65085;46.718;20.136;2023-02-11T07:17:37;54.17;;;18.80;;
76165;SDS011;65085;46.718;20.136;2023-02-11T07:20:40;54.25;;;19.55;;
76165;SDS011;65085;46.718;20.136;2023-02-11T07:23:44;46.38;;;17.73;;
76165;SDS011;65085;46.718;20.136;2023-02-11T07:26:48;58.80;;;19.60;;
76165;SDS011;65085;46.718;20.136;2023-02-11T07:29:51;52.93;;;18.23;;
76165;SDS011;65085;46.718;20.136;2023-02-11T07:32:54;50.00;;;18.95;;
76165;SDS011;65085;46.718;20.136;2023-02-11T07:35:58;51.78;;;19.00;;
76165;SDS011;65085;46.718;20.136;2023-02-11T07:39:02;52.53;;;20.10;;
76165;SDS011;65085;46.718;20.136;2023-02-11T07:42:06;57.90;;;21.30;;
76165;SDS011;65085;46.718;20.136;2023-02-11T07:45:09;52.90;;;20.20;;
76165;SDS011;65085;46.718;20.136;2023-02-11T07:48:13;59.00;;;23.05;;
76165;SDS011;65085;46.718;20.136;2023-02-11T07:51:17;113.35;;;38.70;;
76165;SDS011;65085;46.718;20.136;2023-02-11T07:54:21;45.92;;;17.55;;
76165;SDS011;65085;46.718;20.136;2023-02-11T07:57:25;48.38;;;18.73;;
76165;SDS011;65085;46.718;20.136;2023-02-11T08:00:28;49.33;;;20.07;;
76165;SDS011;65085;46.718;20.136;2023-02-11T08:03:31;51.95;;;20.45;;
76165;SDS011;65085;46.718;20.136;2023-02-11T08:06:38;42.78;;;16.02;;
76165;SDS011;65085;46.718;20.136;2023-02-11T08:09:43;48.33;;;19.40;;
76165;SDS011;65085;46.718;20.136;2023-02-11T08:12:47;45.42;;;17.33;;
76165;SDS011;65085;46.718;20.136;2023-02-11T08:15:50;46.03;;;18.40;;
76165;SDS011;65085;46.718;20.136;2023-02-11T08:18:54;47.80;;;18.73;;
76165;SDS011;65085;46.718;20.136;2023-02-11T08:21:58;41.80;;;17.75;;
76165;SDS011;65085;46.718;20.136;2023-02-11T08:25:02;46.97;;;17.83;;
76165;SDS011;65085;46.718;20.136;2023-02-11T08:28:07;45.08;;;18.60;;
76165;SDS011;65085;46.718;20.136;2023-02-11T08:31:11;48.53;;;18.67;;
76165;SDS011;65085;46.718;20.136;2023-02-11T08:34:15;46.13;;;20.17;;
76165;SDS011;65085;46.718;20.136;2023-02-11T08:37:21;51.20;;;19.95;;
76165;SDS011;65085;46.718;20.136;2023-02-11T08:40:24;51.25;;;21.08;;
76165;SDS011;65085;46.718;20.136;2023-02-11T08:43:28;54.78;;;21.23;;
76165;SDS011;65085;46.718;20.136;2023-02-11T08:46:31;55.77;;;23.47;;
76165;SDS011;65085;46.718;20.136;2023-02-11T08:49:34;54.53;;;22.88;;
76165;SDS011;65085;46.718;20.136;2023-02-11T08:52:37;42.88;;;18.15;;
76165;SDS011;65085;46.718;20.136;2023-02-11T08:55:41;46.05;;;19.88;;
76165;SDS011;65085;46.718;20.136;2023-02-11T08:58:51;48.42;;;20.63;;
76165;SDS011;65085;46.718;20.136;2023-02-11T09:01:54;50.47;;;19.43;;
76165;SDS011;65085;46.718;20.136;2023-02-11T09:04:58;46.70;;;20.40;;
76165;SDS011;65085;46.718;20.136;2023-02-11T09:08:01;44.00;;;20.35;;
76165;SDS011;65085;46.718;20.136;2023-02-11T09:11:04;46.83;;;19.88;;
76165;SDS011;65085;46.718;20.136;2023-02-11T09:14:10;45.72;;;20.08;;
76165;SDS011;65085;46.718;20.136;2023-02-11T09:17:17;51.70;;;21.60;;
76165;SDS011;65085;46.718;20.136;2023-02-11T09:20:20;51.03;;;21.70;;
76165;SDS011;65085;46.718;20.136;2023-02-11T09:23:23;46.80;;;19.70;;
76165;SDS011;65085;46.718;20.136;2023-02-11T09:26:27;45.90;;;20.98;;
76165;SDS011;65085;46.718;20.136;2023-02-11T09:29:33;45.22;;;19.65;;
76165;SDS011;65085;46.718;20.136;2023-02-11T09:32:36;44.63;;;19.00;;
76165;SDS011;65085;46.718;20.136;2023-02-11T09:35:39;48.67;;;21.23;;
76165;SDS011;65085;46.718;20.136;2023-02-11T09:38:42;48.03;;;19.88;;
76165;SDS011;65085;46.718;20.136;2023-02-11T09:41:57;47.75;;;19.90;;
76165;SDS011;65085;46.718;20.136;2023-02-11T09:45:11;47.35;;;19.77;;
76165;SDS011;65085;46.718;20.136;2023-02-11T09:48:19;43.90;;;19.63;;
76165;SDS011;65085;46.718;20.136;2023-02-11T09:51:26;48.78;;;20.67;;
76165;SDS011;65085;46.718;20.136;2023-02-11T09:54:39;56.00;;;21.30;;
76165;SDS011;65085;46.718;20.136;2023-02-11T09:57:54;49.00;;;20.73;;
76165;SDS011;65085;46.718;20.136;2023-02-11T10:01:01;45.80;;;20.63;;
76165;SDS011;65085;46.718;20.136;2023-02-11T10:04:11;46.27;;;21.20;;
76165;SDS011;65085;46.718;20.136;2023-02-11T10:07:20;52.85;;;21.45;;
76165;SDS011;65085;46.718;20.136;2023-02-11T10:10:34;41.58;;;18.60;;
76165;SDS011;65085;46.718;20.136;2023-02-11T10:13:47;48.75;;;19.85;;
76165;SDS011;65085;46.718;20.136;2023-02-11T10:17:00;42.05;;;18.42;;
76165;SDS011;65085;46.718;20.136;2023-02-11T10:20:17;46.27;;;18.97;;
76165;SDS011;65085;46.718;20.136;2023-02-11T10:23:28;43.05;;;17.85;;
76165;SDS011;65085;46.718;20.136;2023-02-11T10:26:36;40.35;;;15.90;;
76165;SDS011;65085;46.718;20.136;2023-02-11T10:29:42;40.63;;;17.15;;
76165;SDS011;65085;46.718;20.136;2023-02-11T10:32:52;38.33;;;18.13;;
76165;SDS011;65085;46.718;20.136;2023-02-11T10:35:58;46.83;;;19.90;;
76165;SDS011;65085;46.718;20.136;2023-02-11T10:39:01;40.65;;;18.63;;
76165;SDS011;65085;46.718;20.136;2023-02-11T10:42:13;46.88;;;19.80;;
76165;SDS011;65085;46.718;20.136;2023-02-11T10:45:18;45.75;;;20.63;;
76165;SDS011;65085;46.718;20.136;2023-02-11T10:48:41;47.75;;;20.70;;
76165;SDS011;65085;46.718;20.136;2023-02-11T10:51:45;41.60;;;16.70;;
76165;SDS011;65085;46.718;20.136;2023-02-11T10:54:58;50.17;;;20.25;;
76165;SDS011;65085;46.718;20.136;2023-02-11T10:58:03;51.00;;;19.17;;
76165;SDS011;65085;46.718;20.136;2023-02-11T11:01:06;65.75;;;24.05;;
76165;SDS011;65085;46.718;20.136;2023-02-11T11:04:38;55.47;;;22.70;;
76165;SDS011;65085;46.718;20.136;2023-02-11T11:07:50;45.93;;;18.90;;
76165;SDS011;65085;46.718;20.136;2023-02-11T11:11:00;42.17;;;18.88;;
76165;SDS011;65085;46.718;20.136;2023-02-11T11:14:12;45.40;;;19.35;;
76165;SDS011;65085;46.718;20.136;2023-02-11T11:17:20;48.15;;;19.92;;
76165;SDS011;65085;46.718;20.136;2023-02-11T11:20:26;50.65;;;18.73;;
76165;SDS011;65085;46.718;20.136;2023-02-11T11:23:31;54.50;;;21.57;;
76165;SDS011;65085;46.718;20.136;2023-02-11T11:26:39;51.33;;;20.73;;
76165;SDS011;65085;46.718;20.136;2023-02-11T11:29:45;49.45;;;19.33;;
76165;SDS011;65085;46.718;20.136;2023-02-11T11:32:50;47.08;;;18.38;;
76165;SDS011;65085;46.718;20.136;2023-02-11T11:35:57;55.90;;;21.95;;
76165;SDS011;65085;46.718;20.136;2023-02-11T11:39:09;68.67;;;26.33;;
76165;SDS011;65085;46.718;20.136;2023-02-11T11:42:22;56.17;;;21.63;;
76165;SDS011;65085;46.718;20.136;2023-02-11T11:45:27;40.58;;;17.50;;
76165;SDS011;65085;46.718;20.136;2023-02-11T11:48:30;38.03;;;17.65;;
76165;SDS011;65085;46.718;20.136;2023-02-11T11:51:37;37.78;;;18.13;;
76165;SDS011;65085;46.718;20.136;2023-02-11T11:54:44;38.00;;;16.20;;
76165;SDS011;65085;46.718;20.136;2023-02-11T11:57:54;27.25;;;12.60;;
76165;SDS011;65085;46.718;20.136;2023-02-11T12:00:59;34.20;;;16.42;;
76165;SDS011;65085;46.718;20.136;2023-02-11T12:04:23;31.15;;;14.40;;
76165;SDS011;65085;46.718;20.136;2023-02-11T12:07:43;35.40;;;15.73;;
76165;SDS011;65085;46.718;20.136;2023-02-11T12:10:56;36.00;;;15.77;;
76165;SDS011;65085;46.718;20.136;2023-02-11T12:14:12;25.58;;;12.02;;
76165;SDS011;65085;46.718;20.136;2023-02-11T12:17:25;37.33;;;16.20;;
76165;SDS011;65085;46.718;20.136;2023-02-11T12:20:39;41.67;;;17.17;;
76165;SDS011;65085;46.718;20.136;2023-02-11T12:24:00;37.22;;;16.45;;
76165;SDS011;65085;46.718;20.136;2023-02-11T12:27:12;30.03;;;12.97;;
76165;SDS011;65085;46.718;20.136;2023-02-11T12:30:22;34.72;;;14.30;;
76165;SDS011;65085;46.718;20.136;2023-02-11T12:34:03;27.77;;;12.63;;
76165;SDS011;65085;46.718;20.136;2023-02-11T12:37:21;36.60;;;13.38;;
76165;SDS011;65085;46.718;20.136;2023-02-11T12:40:43;30.80;;;11.40;;
76165;SDS011;65085;46.718;20.136;2023-02-11T12:43:48;35.17;;;13.53;;
76165;SDS011;65085;46.718;20.136;2023-02-11T12:46:53;38.28;;;15.15;;
76165;SDS011;65085;46.718;20.136;2023-02-11T12:50:07;36.63;;;14.45;;
76165;SDS011;65085;46.718;20.136;2023-02-11T12:53:25;32.22;;;12.75;;
76165;SDS011;65085;46.718;20.136;2023-02-11T12:56:42;38.60;;;13.43;;
76165;SDS011;65085;46.718;20.136;2023-02-11T12:59:51;41.43;;;18.23;;
76165;SDS011;65085;46.718;20.136;2023-02-11T13:03:01;36.75;;;16.33;;
76165;SDS011;65085;46.718;20.136;2023-02-11T13:06:13;37.05;;;14.80;;
76165;SDS011;65085;46.718;20.136;2023-02-11T13:09:20;40.13;;;14.98;;
76165;SDS011;65085;46.718;20.136;2023-02-11T13:12:27;43.00;;;15.80;;
76165;SDS011;65085;46.718;20.136;2023-02-11T13:15:53;42.60;;;15.97;;
76165;SDS011;65085;46.718;20.136;2023-02-11T13:19:02;37.40;;;15.57;;
76165;SDS011;65085;46.718;20.136;2023-02-11T13:22:15;44.70;;;15.75;;
76165;SDS011;65085;46.718;20.136;2023-02-11T13:25:21;44.97;;;16.73;;
76165;SDS011;65085;46.718;20.136;2023-02-11T13:28:37;39.35;;;16.05;;
76165;SDS011;65085;46.718;20.136;2023-02-11T13:31:51;38.90;;;14.93;;
76165;SDS011;65085;46.718;20.136;2023-02-11T13:34:56;37.88;;;14.73;;
76165;SDS011;65085;46.718;20.136;2023-02-11T13:37:59;45.20;;;18.13;;
76165;SDS011;65085;46.718;20.136;2023-02-11T13:41:05;35.38;;;14.93;;
76165;SDS011;65085;46.718;20.136;2023-02-11T13:44:22;34.42;;;14.48;;
76165;SDS011;65085;46.718;20.136;2023-02-11T13:47:28;36.00;;;15.27;;
76165;SDS011;65085;46.718;20.136;2023-02-11T13:50:36;41.40;;;16.55;;
76165;SDS011;65085;46.718;20.136;2023-02-11T13:53:43;35.28;;;15.00;;
76165;SDS011;65085;46.718;20.136;2023-02-11T14:04:05;35.57;;;15.63;;
76165;SDS011;65085;46.718;20.136;2023-02-11T14:07:40;40.22;;;17.02;;
76165;SDS011;65085;46.718;20.136;2023-02-11T14:11:45;40.25;;;17.00;;
76165;SDS011;65085;46.718;20.136;2023-02-11T14:14:56;49.88;;;22.55;;
76165;SDS011;65085;46.718;20.136;2023-02-11T14:22:00;40.17;;;17.13;;
76165;SDS011;65085;46.718;20.136;2023-02-11T14:25:11;39.70;;;17.40;;
76165;SDS011;65085;46.718;20.136;2023-02-11T14:28:38;38.72;;;16.85;;
76165;SDS011;65085;46.718;20.136;2023-02-11T14:31:48;38.42;;;16.10;;
76165;SDS011;65085;46.718;20.136;2023-02-11T14:35:01;35.15;;;15.77;;
76165;SDS011;65085;46.718;20.136;2023-02-11T14:38:12;35.23;;;16.13;;
76165;SDS011;65085;46.718;20.136;2023-02-11T14:41:25;45.85;;;18.23;;
76165;SDS011;65085;46.718;20.136;2023-02-11T14:44:30;40.85;;;16.05;;
76165;SDS011;65085;46.718;20.136;2023-02-11T14:47:39;44.88;;;18.10;;
76165;SDS011;65085;46.718;20.136;2023-02-11T14:50:48;46.17;;;18.65;;
76165;SDS011;65085;46.718;20.136;2023-02-11T14:53:55;49.17;;;20.87;;
76165;SDS011;65085;46.718;20.136;2023-02-11T14:57:06;53.08;;;21.15;;
76165;SDS011;65085;46.718;20.136;2023-02-11T15:00:15;44.88;;;18.42;;
76165;SDS011;65085;46.718;20.136;2023-02-11T15:03:26;50.13;;;18.70;;
76165;SDS011;65085;46.718;20.136;2023-02-11T15:06:36;47.88;;;18.10;;
76165;SDS011;65085;46.718;20.136;2023-02-11T15:09:41;41.37;;;15.50;;
76165;SDS011;65085;46.718;20.136;2023-02-11T15:12:47;56.55;;;18.95;;
76165;SDS011;65085;46.718;20.136;2023-02-11T15:15:53;64.38;;;23.83;;
76165;SDS011;65085;46.718;20.136;2023-02-11T15:18:59;56.20;;;23.55;;
76165;SDS011;65085;46.718;20.136;2023-02-11T15:22:15;47.03;;;18.38;;
76165;SDS011;65085;46.718;20.136;2023-02-11T15:25:21;60.63;;;23.37;;
76165;SDS011;65085;46.718;20.136;2023-02-11T15:28:26;54.08;;;20.48;;
76165;SDS011;65085;46.718;20.136;2023-02-11T15:31:30;49.63;;;21.63;;
76165;SDS011;65085;46.718;20.136;2023-02-11T15:34:36;42.92;;;18.20;;
76165;SDS011;65085;46.718;20.136;2023-02-11T15:37:42;51.78;;;20.23;;
76165;SDS011;65085;46.718;20.136;2023-02-11T15:40:53;52.63;;;20.83;;
76165;SDS011;65085;46.718;20.136;2023-02-11T15:43:58;53.92;;;22.27;;
76165;SDS011;65085;46.718;20.136;2023-02-11T15:47:00;50.15;;;20.60;;
76165;SDS011;65085;46.718;20.136;2023-02-11T15:50:04;65.88;;;27.50;;
76165;SDS011;65085;46.718;20.136;2023-02-11T15:53:21;91.00;;;33.20;;
76165;SDS011;65085;46.718;20.136;2023-02-11T15:56:27;128.00;;;45.40;;
76165;SDS011;65085;46.718;20.136;2023-02-11T15:59:34;94.00;;;36.70;;
76165;SDS011;65085;46.718;20.136;2023-02-11T16:02:39;101.70;;;33.13;;
76165;SDS011;65085;46.718;20.136;2023-02-11T16:05:47;71.45;;;26.15;;
76165;SDS011;65085;46.718;20.136;2023-02-11T16:08:59;56.80;;;20.02;;
76165;SDS011;65085;46.718;20.136;2023-02-11T16:12:19;88.33;;;30.27;;
76165;SDS011;65085;46.718;20.136;2023-02-11T16:15:29;85.28;;;32.15;;
76165;SDS011;65085;46.718;20.136;2023-02-11T16:18:43;73.43;;;28.70;;
76165;SDS011;65085;46.718;20.136;2023-02-11T16:22:06;66.05;;;25.83;;
76165;SDS011;65085;46.718;20.136;2023-02-11T16:25:17;63.83;;;26.58;;
76165;SDS011;65085;46.718;20.136;2023-02-11T16:28:21;86.47;;;33.40;;
76165;SDS011;65085;46.718;20.136;2023-02-11T16:31:30;127.50;;;47.58;;
76165;SDS011;65085;46.718;20.136;2023-02-11T16:34:34;122.45;;;42.40;;
76165;SDS011;65085;46.718;20.136;2023-02-11T16:37:38;116.50;;;42.33;;
76165;SDS011;65085;46.718;20.136;2023-02-11T16:40:42;130.50;;;40.47;;
76165;SDS011;65085;46.718;20.136;2023-02-11T16:43:47;102.00;;;32.77;;
76165;SDS011;65085;46.718;20.136;2023-02-11T16:46:51;107.65;;;33.35;;
76165;SDS011;65085;46.718;20.136;2023-02-11T16:49:54;77.90;;;28.20;;
76165;SDS011;65085;46.718;20.136;2023-02-11T16:52:58;89.68;;;30.13;;
76165;SDS011;65085;46.718;20.136;2023-02-11T16:56:05;98.45;;;34.03;;
76165;SDS011;65085;46.718;20.136;2023-02-11T16:59:08;83.73;;;30.50;;
76165;SDS011;65085;46.718;20.136;2023-02-11T17:02:11;83.13;;;32.47;;
76165;SDS011;65085;46.718;20.136;2023-02-11T17:05:17;108.50;;;34.95;;
76165;SDS011;65085;46.718;20.136;2023-02-11T17:08:24;72.80;;;25.92;;
76165;SDS011;65085;46.718;20.136;2023-02-11T17:11:28;67.22;;;24.73;;
76165;SDS011;65085;46.718;20.136;2023-02-11T17:14:31;59.47;;;21.47;;
76165;SDS011;65085;46.718;20.136;2023-02-11T17:17:34;56.38;;;20.90;;
76165;SDS011;65085;46.718;20.136;2023-02-11T17:20:37;53.60;;;19.45;;
76165;SDS011;65085;46.718;20.136;2023-02-11T17:23:41;79.03;;;29.58;;
76165;SDS011;65085;46.718;20.136;2023-02-11T17:26:46;43.90;;;17.30;;
76165;SDS011;65085;46.718;20.136;2023-02-11T17:29:49;49.00;;;19.00;;
76165;SDS011;65085;46.718;20.136;2023-02-11T17:32:52;50.33;;;18.85;;
76165;SDS011;65085;46.718;20.136;2023-02-11T17:35:56;84.00;;;28.52;;
76165;SDS011;65085;46.718;20.136;2023-02-11T17:38:59;171.07;;;55.55;;
76165;SDS011;65085;46.718;20.136;2023-02-11T17:42:04;65.43;;;24.85;;
76165;SDS011;65085;46.718;20.136;2023-02-11T17:45:08;58.63;;;24.17;;
76165;SDS011;65085;46.718;20.136;2023-02-11T17:48:11;66.68;;;22.70;;
76165;SDS011;65085;46.718;20.136;2023-02-11T17:51:21;59.75;;;22.38;;
76165;SDS011;65085;46.718;20.136;2023-02-11T17:54:25;49.85;;;18.95;;
76165;SDS011;65085;46.718;20.136;2023-02-11T17:57:29;47.78;;;17.42;;
76165;SDS011;65085;46.718;20.136;2023-02-11T18:00:32;47.77;;;18.57;;
76165;SDS011;65085;46.718;20.136;2023-02-11T18:03:35;61.92;;;22.77;;
76165;SDS011;65085;46.718;20.136;2023-02-11T18:06:39;65.03;;;22.90;;
76165;SDS011;65085;46.718;20.136;2023-02-11T18:09:43;62.05;;;23.83;;
76165;SDS011;65085;46.718;20.136;2023-02-11T18:12:47;65.40;;;24.38;;
76165;SDS011;65085;46.718;20.136;2023-02-11T18:15:51;64.73;;;25.10;;